createdAt,value
2022-11-05T00:02:40.918Z,22.20
2022-11-05T00:05:30.787Z,22.83
2022-11-05T00:08:19.163Z,21.88
2022-11-05T00:10:47.375Z,22.58
2022-11-05T00:13:34.883Z,22.67
2022-11-05T00:16:34.707Z,24.05
2022-11-05T00:19:09.098Z,22.65
2022-11-05T00:21:57.729Z,23.85
2022-11-05T00:24:43.541Z,24.40
2022-11-05T00:27:12.087Z,21.60
2022-11-05T00:29:40.406Z,23.98
2022-11-05T00:32:08.649Z,23.60
2022-11-05T00:34:36.800Z,22.73
2022-11-05T00:37:06.276Z,22.90
2022-11-05T00:39:34.372Z,23.13
2022-11-05T00:42:19.727Z,21.70
2022-11-05T00:45:02.642Z,21.92
2022-11-05T00:47:50.332Z,21.20
2022-11-05T00:50:19.819Z,23.92
2022-11-05T00:52:59.380Z,22.70
2022-11-05T00:55:34.483Z,23.10
2022-11-05T00:58:04.486Z,23.60
2022-11-05T01:00:34.841Z,20.95
2022-11-05T01:03:04.736Z,21.35
2022-11-05T01:05:34.671Z,22.48
2022-11-05T01:08:04.220Z,22.77
2022-11-05T01:10:32.324Z,22.83
2022-11-05T01:13:00.456Z,23.23
2022-11-05T01:15:28.947Z,24.10
2022-11-05T01:17:57.273Z,24.02
2022-11-05T01:20:25.414Z,22.77
2022-11-05T01:22:53.603Z,23.42
2022-11-05T01:25:23.583Z,22.33
2022-11-05T01:27:52.080Z,21.08
2022-11-05T01:30:20.665Z,23.88
2022-11-05T01:32:48.910Z,24.20
2022-11-05T01:35:18.568Z,22.60
2022-11-05T01:37:47.587Z,23.23
2022-11-05T01:40:17.519Z,23.27
2022-11-05T01:42:47.515Z,21.10
2022-11-05T01:45:19.071Z,21.88
2022-11-05T01:48:04.686Z,24.38
2022-11-05T01:50:38.361Z,21.70
2022-11-05T01:53:22.818Z,20.65
2022-11-05T01:55:56.145Z,23.52
2022-11-05T01:58:30.100Z,24.20
2022-11-05T02:00:58.575Z,22.13
2022-11-05T02:03:27.839Z,23.20
2022-11-05T02:05:57.597Z,25.30
2022-11-05T02:08:37.311Z,23.75
2022-11-05T02:11:06.596Z,24.15
2022-11-05T02:13:36.870Z,25.10
2022-11-05T02:16:13.799Z,25.60
2022-11-05T02:18:53.317Z,26.02
2022-11-05T02:21:46.052Z,26.02
2022-11-05T02:24:53.613Z,24.83
2022-11-05T02:27:38.871Z,24.05
2022-11-05T02:30:24.680Z,24.45
2022-11-05T02:33:12.889Z,23.33
2022-11-05T02:36:25.462Z,24.33
2022-11-05T02:39:08.160Z,24.92
2022-11-05T02:41:44.240Z,24.60
2022-11-05T02:44:23.990Z,23.15
2022-11-05T02:47:00.372Z,25.90
2022-11-05T02:49:40.275Z,23.80
2022-11-05T02:52:17.181Z,23.60
2022-11-05T02:54:51.877Z,23.15
2022-11-05T02:57:20.495Z,23.33
2022-11-05T02:59:48.615Z,26.38
2022-11-05T03:02:18.239Z,24.25
2022-11-05T03:04:46.460Z,23.80
2022-11-05T03:07:31.541Z,22.85
2022-11-05T03:10:38.499Z,23.90
2022-11-05T03:13:16.269Z,24.90
2022-11-05T03:15:54.754Z,23.77
2022-11-05T03:18:29.353Z,25.08
2022-11-05T03:21:03.986Z,22.85
2022-11-05T03:23:41.058Z,25.08
2022-11-05T03:26:17.655Z,22.75
2022-11-05T03:28:50.372Z,23.02
2022-11-05T03:31:19.959Z,23.88
2022-11-05T03:33:53.091Z,25.33
2022-11-05T03:36:25.867Z,24.75
2022-11-05T03:38:57.003Z,25.05
2022-11-05T03:41:26.460Z,27.15
2022-11-05T03:43:59.715Z,25.17
2022-11-05T03:46:31.751Z,24.80
2022-11-05T03:49:04.006Z,24.65
2022-11-05T03:51:40.372Z,23.60
2022-11-05T03:54:08.923Z,25.55
2022-11-05T03:56:41.526Z,26.00
2022-11-05T03:59:12.160Z,25.45
2022-11-05T04:01:42.800Z,24.92
2022-11-05T04:04:12.395Z,25.30
2022-11-05T04:06:57.761Z,26.10
2022-11-05T04:09:43.114Z,24.48
2022-11-05T04:12:29.475Z,24.88
2022-11-05T04:14:58.478Z,25.40
2022-11-05T04:17:25.584Z,25.90
2022-11-05T04:20:12.859Z,25.15
2022-11-05T04:22:58.306Z,24.20
2022-11-05T04:25:26.441Z,26.25
2022-11-05T04:27:54.524Z,27.00
2022-11-05T04:30:21.864Z,24.92
2022-11-05T04:33:01.049Z,26.70
2022-11-05T04:35:32.256Z,25.17
2022-11-05T04:38:00.657Z,25.08
2022-11-05T04:40:28.964Z,25.77
2022-11-05T04:42:58.450Z,25.17
2022-11-05T04:45:28.888Z,25.48
2022-11-05T04:47:57.164Z,25.30
2022-11-05T04:50:25.460Z,25.52
2022-11-05T04:52:54.986Z,28.13
2022-11-05T04:55:23.274Z,26.98
2022-11-05T04:57:52.341Z,26.27
2022-11-05T05:00:22.453Z,25.85
2022-11-05T05:02:51.018Z,24.27
2022-11-05T05:05:19.374Z,24.42
2022-11-05T05:07:47.458Z,24.85
2022-11-05T05:10:16.992Z,25.80
2022-11-05T05:12:45.143Z,24.88
2022-11-05T05:15:13.234Z,25.13
2022-11-05T05:17:41.394Z,26.08
2022-11-05T05:20:27.470Z,27.98
2022-11-05T05:22:56.563Z,24.20
2022-11-05T05:25:26.061Z,26.25
2022-11-05T05:27:54.136Z,30.30
2022-11-05T05:30:22.211Z,25.35
2022-11-05T05:32:50.362Z,26.77
2022-11-05T05:35:18.603Z,27.00
2022-11-05T05:37:46.723Z,24.98
2022-11-05T05:40:14.855Z,25.52
2022-11-05T05:42:44.331Z,26.15
2022-11-05T05:45:13.427Z,26.88
2022-11-05T05:47:41.571Z,26.02
2022-11-05T05:50:09.929Z,28.38
2022-11-05T05:52:38.042Z,27.75
2022-11-05T05:55:06.886Z,26.58
2022-11-05T05:57:35.466Z,26.77
2022-11-05T06:00:06.066Z,25.52
2022-11-05T06:02:40.074Z,25.38
2022-11-05T06:05:08.689Z,23.73
2022-11-05T06:07:37.574Z,27.35
2022-11-05T06:10:06.967Z,24.58
2022-11-05T06:12:35.126Z,25.83
2022-11-05T06:15:05.417Z,27.63
2022-11-05T06:17:34.350Z,26.17
2022-11-05T06:20:02.658Z,26.63
2022-11-05T06:22:30.842Z,26.40
2022-11-05T06:24:58.958Z,26.40
2022-11-05T06:27:27.093Z,23.55
2022-11-05T06:29:55.506Z,24.55
2022-11-05T06:32:25.127Z,23.63
2022-11-05T06:34:53.484Z,25.45
2022-11-05T06:37:21.578Z,24.95
2022-11-05T06:39:49.726Z,24.88
2022-11-05T06:42:18.982Z,26.40
2022-11-05T06:44:48.050Z,28.42
2022-11-05T06:47:16.233Z,27.65
2022-11-05T06:49:45.988Z,29.70
2022-11-05T06:52:14.961Z,31.92
2022-11-05T06:54:44.488Z,27.20
2022-11-05T06:57:13.978Z,25.88
2022-11-05T06:59:42.579Z,27.13
2022-11-05T07:02:12.892Z,24.65
2022-11-05T07:04:41.126Z,25.25
2022-11-05T07:07:10.923Z,23.77
2022-11-05T07:09:42.978Z,23.80
2022-11-05T07:12:11.207Z,25.37
2022-11-05T07:14:39.382Z,24.70
2022-11-05T07:17:07.514Z,22.00
2022-11-05T07:19:35.635Z,22.60
2022-11-05T07:22:03.786Z,22.10
2022-11-05T07:24:33.323Z,22.80
2022-11-05T07:27:01.556Z,21.37
2022-11-05T07:29:29.714Z,22.70
2022-11-05T07:31:57.864Z,21.63
2022-11-05T07:34:26.063Z,22.43
2022-11-05T07:36:54.185Z,21.13
2022-11-05T07:39:22.950Z,19.97
2022-11-05T07:41:53.159Z,20.90
2022-11-05T07:44:21.304Z,20.93
2022-11-05T07:46:49.399Z,22.10
2022-11-05T07:49:17.598Z,20.60
2022-11-05T07:51:45.946Z,20.33
2022-11-05T07:54:14.047Z,20.20
2022-11-05T07:56:42.135Z,18.30
2022-11-05T07:59:11.833Z,19.70
2022-11-05T08:01:40.090Z,21.87
2022-11-05T08:04:08.397Z,21.77
2022-11-05T08:06:36.515Z,21.50
2022-11-05T08:09:04.925Z,20.07
2022-11-05T08:11:35.106Z,20.83
2022-11-05T08:14:03.259Z,19.10
2022-11-05T08:16:32.748Z,18.50
2022-11-05T08:19:00.843Z,20.80
2022-11-05T08:21:28.943Z,19.30
2022-11-05T08:23:57.110Z,19.80
2022-11-05T08:26:25.263Z,19.67
2022-11-05T08:28:53.407Z,18.90
2022-11-05T08:31:21.543Z,20.67
2022-11-05T08:33:51.036Z,20.60
2022-11-05T08:36:19.322Z,19.07
2022-11-05T08:38:47.419Z,19.80
2022-11-05T08:41:15.740Z,18.97
2022-11-05T08:43:43.895Z,19.90
2022-11-05T08:46:11.964Z,19.00
2022-11-05T08:48:40.075Z,18.57
2022-11-05T08:51:09.572Z,17.27
2022-11-05T08:53:37.682Z,17.40
2022-11-05T08:56:06.160Z,20.03
2022-11-05T08:58:34.276Z,18.87
2022-11-05T09:01:05.667Z,15.93
2022-11-05T09:03:33.933Z,16.63
2022-11-05T09:06:02.067Z,17.07
2022-11-05T09:08:31.596Z,16.33
2022-11-05T09:10:59.719Z,17.00
2022-11-05T09:13:28.334Z,16.00
2022-11-05T09:15:58.708Z,16.40
2022-11-05T09:18:27.223Z,17.27
2022-11-05T09:20:55.351Z,16.33
2022-11-05T09:23:23.489Z,14.50
2022-11-05T09:25:53.130Z,15.20
2022-11-05T09:28:23.748Z,15.30
2022-11-05T09:30:53.561Z,17.70
2022-11-05T09:33:23.568Z,14.53
2022-11-05T09:35:51.859Z,16.10
2022-11-05T09:38:20.518Z,16.53
2022-11-05T09:40:58.455Z,15.80
2022-11-05T09:43:32.299Z,15.03
2022-11-05T09:46:05.317Z,15.70
2022-11-05T09:48:34.867Z,14.30
2022-11-05T09:51:04.947Z,15.23
2022-11-05T09:53:36.986Z,14.97
2022-11-05T09:56:15.092Z,15.37
2022-11-05T09:58:48.818Z,16.60
2022-11-05T10:01:23.024Z,15.93
2022-11-05T10:03:55.650Z,13.63
2022-11-05T10:06:25.878Z,14.37
2022-11-05T10:09:01.338Z,14.27
2022-11-05T10:11:35.319Z,14.93
2022-11-05T10:14:09.888Z,14.23
2022-11-05T10:16:43.446Z,15.53
2022-11-05T10:19:17.175Z,14.60
2022-11-05T10:22:05.677Z,14.83
2022-11-05T10:24:33.678Z,14.10
2022-11-05T10:27:04.229Z,15.30
2022-11-05T10:29:35.525Z,14.60
2022-11-05T10:32:07.290Z,13.17
2022-11-05T10:34:38.039Z,15.37
2022-11-05T10:37:06.774Z,14.33
2022-11-05T10:39:35.930Z,14.03
2022-11-05T10:42:29.790Z,12.63
2022-11-05T10:45:09.063Z,13.67
2022-11-05T10:47:52.924Z,12.80
2022-11-05T10:50:24.387Z,13.90
2022-11-05T10:52:59.014Z,14.30
2022-11-05T10:55:30.358Z,12.67
2022-11-05T10:58:12.289Z,12.70
2022-11-05T11:00:41.095Z,12.50
2022-11-05T11:03:35.602Z,13.50
2022-11-05T11:06:07.679Z,12.10
2022-11-05T11:08:37.674Z,12.23
2022-11-05T11:11:08.995Z,12.63
2022-11-05T11:13:52.943Z,12.90
2022-11-05T11:16:23.701Z,13.40
2022-11-05T11:18:55.296Z,13.37
2022-11-05T11:21:24.642Z,13.53
2022-11-05T11:23:57.533Z,14.07
2022-11-05T11:26:27.914Z,13.00
2022-11-05T11:29:00.525Z,13.63
2022-11-05T11:31:30.759Z,14.20
2022-11-05T11:34:03.656Z,12.40
2022-11-05T11:36:41.408Z,12.17
2022-11-05T11:39:17.598Z,12.50
2022-11-05T11:41:47.111Z,11.90
2022-11-05T11:44:19.252Z,12.93
2022-11-05T11:46:50.825Z,12.17
2022-11-05T11:49:33.611Z,11.23
2022-11-05T11:52:04.770Z,12.47
2022-11-05T11:54:34.749Z,11.20
2022-11-05T11:57:03.095Z,11.50
2022-11-05T12:00:06.686Z,11.63
2022-11-05T12:03:02.069Z,12.37
2022-11-05T12:05:46.253Z,14.10
2022-11-05T12:08:26.347Z,11.20
2022-11-05T12:11:03.027Z,12.57
2022-11-05T12:13:55.639Z,12.50
2022-11-05T12:16:35.740Z,11.90
2022-11-05T12:19:13.408Z,12.90
2022-11-05T12:21:54.118Z,13.33
2022-11-05T12:24:53.766Z,13.00
2022-11-05T12:27:34.816Z,12.80
2022-11-05T12:30:07.050Z,13.13
2022-11-05T12:32:49.421Z,12.33
2022-11-05T12:35:31.578Z,13.27
2022-11-05T12:38:08.168Z,12.90
2022-11-05T12:40:48.008Z,12.37
2022-11-05T12:43:24.940Z,12.80
2022-11-05T12:46:01.458Z,14.27
2022-11-05T12:48:57.908Z,13.13
2022-11-05T12:51:41.025Z,12.40
2022-11-05T12:54:18.919Z,13.43
2022-11-05T12:56:51.036Z,13.37
2022-11-05T12:59:24.230Z,13.33
2022-11-05T13:01:58.889Z,13.70
2022-11-05T13:04:36.988Z,15.60
2022-11-05T13:07:08.767Z,14.70
2022-11-05T13:09:42.694Z,13.63
2022-11-05T13:12:14.568Z,16.30
2022-11-05T13:14:48.572Z,14.77
2022-11-05T13:17:20.709Z,14.70
2022-11-05T13:19:53.979Z,14.27
2022-11-05T13:22:31.592Z,13.87
2022-11-05T13:25:05.603Z,14.17
2022-11-05T13:27:53.004Z,13.77
2022-11-05T13:30:23.333Z,14.27
2022-11-05T13:32:57.235Z,15.00
2022-11-05T13:35:31.583Z,16.70
2022-11-05T13:38:22.419Z,14.10
2022-11-05T13:41:07.875Z,16.23
2022-11-05T13:43:56.120Z,15.03
2022-11-05T13:46:41.288Z,14.00
2022-11-05T13:49:40.252Z,14.87
2022-11-05T13:52:29.451Z,15.80
2022-11-05T13:55:22.777Z,15.80
2022-11-05T13:58:23.367Z,15.43
2022-11-05T14:01:07.070Z,13.33
2022-11-05T14:03:35.335Z,15.07
2022-11-05T14:06:06.184Z,13.80
2022-11-05T14:08:41.135Z,14.27
2022-11-05T14:11:23.617Z,15.23
2022-11-05T14:13:55.784Z,14.77
2022-11-05T14:16:26.036Z,15.00
2022-11-05T14:19:15.679Z,15.53
2022-11-05T14:21:49.003Z,15.70
2022-11-05T14:24:27.905Z,16.80
2022-11-05T14:27:38.069Z,15.33
2022-11-05T14:30:50.851Z,15.73
2022-11-05T14:33:32.716Z,16.33
2022-11-05T14:36:32.128Z,15.33
2022-11-05T14:39:13.477Z,15.80
2022-11-05T14:42:02.167Z,15.73
2022-11-05T14:44:31.668Z,15.33
2022-11-05T14:47:03.570Z,17.03
2022-11-05T14:49:34.455Z,16.67
2022-11-05T14:52:09.068Z,16.70
2022-11-05T14:54:43.710Z,17.10
2022-11-05T14:57:16.042Z,16.90
2022-11-05T15:00:02.409Z,18.00
2022-11-05T15:02:37.819Z,18.37
2022-11-05T15:05:49.710Z,18.30
2022-11-05T15:08:35.955Z,16.00
2022-11-05T15:11:12.798Z,16.33
2022-11-05T15:13:51.982Z,16.57
2022-11-05T15:16:26.351Z,15.90
2022-11-05T15:18:56.618Z,17.53
2022-11-05T15:21:26.134Z,16.27
2022-11-05T15:23:57.580Z,17.17
2022-11-05T15:26:32.738Z,17.50
2022-11-05T15:29:02.561Z,19.17
2022-11-05T15:31:34.683Z,17.97
2022-11-05T15:34:21.592Z,18.07
2022-11-05T15:36:52.547Z,18.10
2022-11-05T15:39:30.427Z,16.77
2022-11-05T15:41:59.831Z,16.70
2022-11-05T15:44:31.860Z,17.67
2022-11-05T15:47:08.428Z,18.27
2022-11-05T15:49:36.790Z,17.70
2022-11-05T15:52:05.688Z,15.90
2022-11-05T15:54:34.070Z,18.00
2022-11-05T15:57:03.020Z,18.83
2022-11-05T15:59:32.654Z,17.30
2022-11-05T16:02:16.299Z,19.37
2022-11-05T16:04:48.543Z,18.73
2022-11-05T16:07:17.328Z,18.90
2022-11-05T16:09:55.293Z,17.77
2022-11-05T16:12:33.402Z,18.23
2022-11-05T16:15:18.386Z,18.47
2022-11-05T16:17:50.001Z,18.80
2022-11-05T16:20:28.502Z,18.33
2022-11-05T16:22:58.684Z,19.90
2022-11-05T16:25:33.479Z,17.70
2022-11-05T16:28:02.575Z,20.63
2022-11-05T16:30:32.234Z,17.07
2022-11-05T16:33:08.054Z,18.90
2022-11-05T16:35:49.110Z,18.80
2022-11-05T16:38:18.452Z,18.43
2022-11-05T16:40:46.630Z,20.40
2022-11-05T16:43:20.417Z,20.03
2022-11-05T16:45:50.033Z,19.30
2022-11-05T16:48:18.376Z,20.57
2022-11-05T16:50:46.610Z,19.80
2022-11-05T16:53:14.958Z,20.20
2022-11-05T16:55:44.912Z,18.87
2022-11-05T16:58:20.805Z,18.70
2022-11-05T17:00:52.321Z,18.80
2022-11-05T17:03:20.428Z,19.30
2022-11-05T17:05:48.688Z,18.60
2022-11-05T17:08:16.812Z,19.80
2022-11-05T17:10:44.997Z,18.93
2022-11-05T17:13:16.388Z,19.00
2022-11-05T17:15:45.771Z,17.73
2022-11-05T17:18:18.898Z,20.00
2022-11-05T17:20:49.358Z,17.70
2022-11-05T17:23:18.893Z,17.73
2022-11-05T17:25:50.157Z,19.00
2022-11-05T17:28:19.114Z,18.87
2022-11-05T17:30:52.142Z,17.83
2022-11-05T17:33:23.751Z,18.38
2022-11-05T17:35:52.748Z,18.90
2022-11-05T17:38:21.602Z,19.23
2022-11-05T17:40:49.766Z,16.53
2022-11-05T17:43:17.890Z,17.93
2022-11-05T17:45:48.171Z,19.03
2022-11-05T17:48:17.145Z,20.07
2022-11-05T17:50:48.880Z,19.63
2022-11-05T17:53:18.376Z,17.57
2022-11-05T17:55:47.863Z,18.40
2022-11-05T17:58:16.352Z,19.73
2022-11-05T18:00:45.743Z,19.00
2022-11-05T18:03:14.981Z,19.87
2022-11-05T18:05:43.353Z,19.85
2022-11-05T18:08:13.331Z,22.00
2022-11-05T18:10:41.904Z,19.43
2022-11-05T18:13:11.160Z,21.00
2022-11-05T18:15:41.358Z,21.03
2022-11-05T18:18:10.471Z,22.20
2022-11-05T18:20:38.745Z,21.27
2022-11-05T18:23:06.999Z,21.30
2022-11-05T18:25:36.549Z,23.23
2022-11-05T18:28:04.799Z,21.57
2022-11-05T18:30:32.930Z,20.50
2022-11-05T18:33:01.233Z,21.52
2022-11-05T18:35:29.317Z,20.67
2022-11-05T18:37:57.467Z,19.73
2022-11-05T18:40:25.597Z,21.10
2022-11-05T18:42:55.101Z,20.77
2022-11-05T18:45:28.408Z,21.43
2022-11-05T18:47:57.784Z,20.87
2022-11-05T18:50:25.971Z,22.67
2022-11-05T18:52:54.312Z,22.27
2022-11-05T18:55:22.942Z,23.47
2022-11-05T18:57:51.167Z,22.40
2022-11-05T19:00:20.872Z,21.30
2022-11-05T19:02:49.007Z,24.40
2022-11-05T19:05:32.676Z,24.15
2022-11-05T19:08:01.450Z,23.47
2022-11-05T19:10:29.723Z,21.48
2022-11-05T19:12:58.132Z,21.47
2022-11-05T19:15:27.674Z,22.25
2022-11-05T19:17:55.761Z,22.40
2022-11-05T19:20:24.098Z,22.77
2022-11-05T19:22:52.207Z,22.83
2022-11-05T19:25:20.479Z,23.05
2022-11-05T19:27:48.844Z,23.90
2022-11-05T19:30:17.452Z,25.83
2022-11-05T19:32:46.999Z,23.13
2022-11-05T19:35:15.384Z,26.17
2022-11-05T19:37:43.564Z,30.73
2022-11-05T19:40:12.827Z,27.63
2022-11-05T19:42:40.954Z,31.02
2022-11-05T19:45:42.990Z,29.45
2022-11-05T19:47:59.820Z,35.17
2022-11-05T19:50:28.068Z,30.47
2022-11-05T19:52:56.451Z,28.27
2022-11-05T19:55:24.558Z,30.48
2022-11-05T19:57:53.111Z,27.27
2022-11-05T20:00:21.325Z,25.20
2022-11-05T20:02:49.571Z,26.80
2022-11-05T20:05:19.300Z,26.65
2022-11-05T20:07:52.487Z,25.80
2022-11-05T20:10:21.902Z,26.27
2022-11-05T20:12:50.039Z,25.70
2022-11-05T20:15:19.692Z,24.13
2022-11-05T20:17:52.372Z,23.83
2022-11-05T20:20:22.053Z,24.53
2022-11-05T20:22:52.881Z,27.35
2022-11-05T20:25:21.010Z,26.70
2022-11-05T20:27:49.087Z,26.00
2022-11-05T20:30:17.307Z,26.00
2022-11-05T20:32:45.424Z,27.93
2022-11-05T20:35:13.604Z,33.63
2022-11-05T20:37:43.091Z,27.17
2022-11-05T20:40:14.040Z,26.97
2022-11-05T20:42:42.905Z,27.03
2022-11-05T20:45:11.800Z,28.80
2022-11-05T20:47:39.875Z,25.95
2022-11-05T20:50:09.703Z,25.83
2022-11-05T20:52:37.836Z,27.60
2022-11-05T20:55:09.693Z,25.60
2022-11-05T20:57:38.481Z,27.40
2022-11-05T21:00:08.288Z,26.80
2022-11-05T21:02:36.880Z,25.98
2022-11-05T21:05:07.423Z,25.23
2022-11-05T21:07:35.971Z,27.10
2022-11-05T21:10:04.172Z,25.25
2022-11-05T21:12:33.802Z,22.33
2022-11-05T21:15:02.259Z,24.40
2022-11-05T21:17:30.366Z,25.40
2022-11-05T21:19:58.617Z,22.73
2022-11-05T21:22:26.711Z,23.90
2022-11-05T21:24:56.732Z,26.40
2022-11-05T21:27:25.450Z,25.05
2022-11-05T21:29:54.902Z,25.75
2022-11-05T21:32:23.039Z,23.65
2022-11-05T21:34:51.135Z,23.65
2022-11-05T21:37:19.278Z,24.80
2022-11-05T21:39:47.443Z,25.65
2022-11-05T21:42:15.567Z,23.70
2022-11-05T21:44:43.639Z,24.95
2022-11-05T21:47:13.130Z,22.30
2022-11-05T21:49:41.255Z,23.60
2022-11-05T21:52:29.485Z,24.90
2022-11-05T21:55:17.170Z,23.63
2022-11-05T21:58:02.911Z,23.88
2022-11-05T22:00:31.263Z,24.60
2022-11-05T22:03:00.984Z,26.23
2022-11-05T22:05:29.310Z,26.23
2022-11-05T22:07:57.455Z,29.00
2022-11-05T22:10:25.803Z,29.20
2022-11-05T22:12:53.929Z,27.27
2022-11-05T22:15:22.047Z,27.65
2022-11-05T22:17:51.751Z,28.70
2022-11-05T22:20:21.320Z,29.95
2022-11-05T22:22:49.746Z,27.58
2022-11-05T22:25:18.011Z,27.58
2022-11-05T22:27:46.128Z,27.83
2022-11-05T22:30:15.529Z,28.23
2022-11-05T22:32:43.603Z,26.80
2022-11-05T22:35:12.080Z,27.60
2022-11-05T22:37:41.618Z,26.30
2022-11-05T22:40:10.560Z,25.15
2022-11-05T22:42:38.742Z,24.67
2022-11-05T22:45:07.838Z,24.30
2022-11-05T22:47:35.959Z,23.55
2022-11-05T22:50:04.427Z,25.02
2022-11-05T22:52:32.783Z,25.17
2022-11-05T22:55:03.823Z,24.77
2022-11-05T22:57:31.915Z,24.20
2022-11-05T23:00:00.337Z,25.35
2022-11-05T23:02:28.648Z,24.48
2022-11-05T23:04:56.887Z,23.10
2022-11-05T23:07:42.454Z,23.45
2022-11-05T23:10:29.358Z,22.38
2022-11-05T23:12:57.615Z,23.45
2022-11-05T23:15:42.976Z,25.02
2022-11-05T23:18:28.807Z,25.10
2022-11-05T23:21:16.960Z,25.80
2022-11-05T23:24:05.540Z,25.48
2022-11-05T23:26:51.684Z,25.02
2022-11-05T23:29:21.773Z,25.90
2022-11-05T23:32:07.255Z,24.05
2022-11-05T23:34:35.553Z,24.23
2022-11-05T23:37:17.819Z,27.08
2022-11-05T23:39:46.062Z,23.95
2022-11-05T23:42:33.167Z,26.50
2022-11-05T23:45:18.531Z,23.60
2022-11-05T23:48:03.880Z,26.13
2022-11-05T23:50:37.066Z,24.80
2022-11-05T23:53:07.989Z,24.50
2022-11-05T23:55:36.679Z,23.83
2022-11-05T23:58:06.242Z,25.33
